Terminal Aerodrome Forecast
Issued by NWS Wichita, KS

Home | Current Version | Previous Version | Graphics & Text | Print | Product List | Glossary On
Versions: 1 2 3 4 5 6 7 8 9 10 11 12 13 14 15 16 17
471
FTUS43 KICT 161130
TAFICT
TAF
KICT 161130Z 1612/1712 36018G25KT P6SM BKN150
     FM161600 02012G22KT P6SM SCT250
     FM162000 03007KT P6SM SCT250
     FM162300 VRB05KT P6SM SCT250
     FM170600 15007KT P6SM BKN250
     FM171000 18008KT P6SM SCT025 BKN060=

USA.gov is the U.S. government's official web portal to all federal, state and local government web resources and services.